Terminal Aerodrome Forecast
Issued by NWS Des Moines, IA

Home | Current Version | Previous Version | Text Only | Print | Product List | Glossary On
Versions: 1 2 3 4 5 6 7 8 9 10 11 12 13 14 15 16 17 18 19 20 21 22 23 24 25 26 27 28 29 30 31 32 33 34 35 36 37 38 39 40 41 42 43 44 45 46 47 48 49 50
000
FTUS43 KDMX 290620 AAA
TAFDSM
TAF AMD
KDSM 290620Z 2906/3006 32005KT P6SM BKN040
      TEMPO 2906/2908 BKN007
     FM290900 34008KT P6SM SKC
     FM291600 30013G20KT P6SM SKC
     FM300000 26006KT P6SM SKC=

USA.gov is the U.S. government's official web portal to all federal, state and local government web resources and services.